Pagrindinis puslapis
METAR-TAF:

METAR-TAF

Oro uostai :

Bermuda, Bermuda

platuma: 32-22N, ilguma: 064-41W, Aukštis: 6 m

Dabartinis oras

Ataskaita buvo paskelbta 12 minutes, ne 16:55 UTC
Vėjas 9 kt iš Šiaurės Vakarų, svyruoja nuo Vakarų/Šiaurės Vakarų ir Šiaurės
Temperatūra 26°C
Drėgmė 58%
Slėgis 1020 hPa
Matomumas 10 km arba daugiau
Mažai debesys ne aukštis 3300 ft
Su prošvaistėmis ne aukštis 30000 ft

METAR: TXKF 201655Z 32009KT 290V350 9999 FEW033 BKN300 26/17 Q1020

Laikas: 14:07 (17:07 UTC)

Prognozė

Ataskaita buvo paskelbta 5 valandos ir 36 minutes, ne 11:31 UTC
Prognozė galioja nuo 20 metu 12 UTC su 21 metu 12 UTC
Vėjas 10 kt iš Šiaurės
Matomumas 10 km arba daugiau
Mažai debesys ne aukštis 3000 ft

TAF: TXKF 201131Z 2012/2112 36010KT 9999 FEW030

Orai ataskaitas ir orų prognozės (METAR, TAF).

turimą stotys yra geltonos ir raudonos taškus žemėlapyje.

Perkelti pele per norėdami pamatyti stoties vardą.

Tada spustelėkite, norėdami matyti oro stebėjimo ir prognozės.

Norėdami pakeisti žemėlapį: spustelėkite ant žalios mygtukų su juodo kryžiaus žemyn,; žalią mygtuką su brūkšneliu, jei norite nutolinti; arba žalių rodyklių gretimoms žemėlapius.


METAR-TAF: